sensor_id;sensor_type;location;lat;lon;timestamp;pressure;altitude;pressure_sealevel;temperature;humidity
74893;BME280;63446;56.272;43.922;2023-03-01T00:01:05;99185.44;;;-1.18;67.47
74893;BME280;63446;56.272;43.922;2023-03-01T00:03:33;99190.19;;;-1.15;67.46
74893;BME280;63446;56.272;43.922;2023-03-01T00:05:59;99188.94;;;-1.13;67.55
74893;BME280;63446;56.272;43.922;2023-03-01T00:08:25;99192.13;;;-1.11;67.33
74893;BME280;63446;56.272;43.922;2023-03-01T00:11:24;99190.31;;;-1.10;67.38
74893;BME280;63446;56.272;43.922;2023-03-01T00:13:54;99194.50;;;-1.09;67.34
74893;BME280;63446;56.272;43.922;2023-03-01T00:16:28;99187.50;;;-1.09;67.21
74893;BME280;63446;56.272;43.922;2023-03-01T00:18:56;99192.69;;;-1.09;67.39
74893;BME280;63446;56.272;43.922;2023-03-01T00:21:22;99190.53;;;-1.12;67.30
74893;BME280;63446;56.272;43.922;2023-03-01T00:23:49;99179.16;;;-1.11;67.21
74893;BME280;63446;56.272;43.922;2023-03-01T00:26:16;99182.97;;;-1.13;67.16
74893;BME280;63446;56.272;43.922;2023-03-01T00:28:42;99182.63;;;-1.17;67.19
74893;BME280;63446;56.272;43.922;2023-03-01T00:31:11;99179.69;;;-1.20;67.20
74893;BME280;63446;56.272;43.922;2023-03-01T00:33:38;99180.56;;;-1.27;67.00
74893;BME280;63446;56.272;43.922;2023-03-01T00:36:05;99194.63;;;-1.34;66.98
74893;BME280;63446;56.272;43.922;2023-03-01T00:38:34;99186.16;;;-1.41;67.07
74893;BME280;63446;56.272;43.922;2023-03-01T00:41:05;99190.63;;;-1.49;67.00
74893;BME280;63446;56.272;43.922;2023-03-01T00:43:31;99183.72;;;-1.55;67.19
74893;BME280;63446;56.272;43.922;2023-03-01T00:46:04;99182.00;;;-1.61;67.02
74893;BME280;63446;56.272;43.922;2023-03-01T00:48:30;99185.16;;;-1.59;67.06
74893;BME280;63446;56.272;43.922;2023-03-01T00:50:56;99183.56;;;-1.60;67.16
74893;BME280;63446;56.272;43.922;2023-03-01T00:53:22;99184.13;;;-1.58;66.90
74893;BME280;63446;56.272;43.922;2023-03-01T00:55:47;99183.16;;;-1.57;67.02
74893;BME280;63446;56.272;43.922;2023-03-01T00:58:13;99182.50;;;-1.52;66.94
74893;BME280;63446;56.272;43.922;2023-03-01T01:00:39;99192.06;;;-1.53;66.80
74893;BME280;63446;56.272;43.922;2023-03-01T01:03:05;99185.09;;;-1.52;66.77
74893;BME280;63446;56.272;43.922;2023-03-01T01:05:34;99177.53;;;-1.54;66.62
74893;BME280;63446;56.272;43.922;2023-03-01T01:08:00;99173.78;;;-1.58;66.51
74893;BME280;63446;56.272;43.922;2023-03-01T01:10:26;99177.06;;;-1.51;66.51
74893;BME280;63446;56.272;43.922;2023-03-01T01:12:52;99181.47;;;-1.51;66.39
74893;BME280;63446;56.272;43.922;2023-03-01T01:15:17;99164.84;;;-1.62;66.36
74893;BME280;63446;56.272;43.922;2023-03-01T01:17:43;99174.34;;;-1.56;66.16
74893;BME280;63446;56.272;43.922;2023-03-01T01:20:10;99167.31;;;-1.67;66.17
74893;BME280;63446;56.272;43.922;2023-03-01T01:22:36;99169.91;;;-1.67;66.17
74893;BME280;63446;56.272;43.922;2023-03-01T01:25:02;99160.06;;;-1.77;66.03
74893;BME280;63446;56.272;43.922;2023-03-01T01:27:29;99183.22;;;-1.63;66.13
74893;BME280;63446;56.272;43.922;2023-03-01T01:29:56;99185.22;;;-1.65;65.90
74893;BME280;63446;56.272;43.922;2023-03-01T01:32:22;99180.03;;;-1.65;65.82
74893;BME280;63446;56.272;43.922;2023-03-01T01:34:48;99186.47;;;-1.68;65.76
74893;BME280;63446;56.272;43.922;2023-03-01T01:37:14;99173.59;;;-1.75;65.88
74893;BME280;63446;56.272;43.922;2023-03-01T01:39:40;99183.66;;;-1.66;65.65
74893;BME280;63446;56.272;43.922;2023-03-01T01:42:05;99183.66;;;-1.66;65.79
74893;BME280;63446;56.272;43.922;2023-03-01T01:44:33;99196.59;;;-1.66;65.69
74893;BME280;63446;56.272;43.922;2023-03-01T01:47:06;99195.03;;;-1.67;65.49
74893;BME280;63446;56.272;43.922;2023-03-01T01:49:35;99191.84;;;-1.69;65.59
74893;BME280;63446;56.272;43.922;2023-03-01T01:54:49;99191.66;;;-1.68;65.62
74893;BME280;63446;56.272;43.922;2023-03-01T01:57:20;99197.19;;;-1.64;65.65
74893;BME280;63446;56.272;43.922;2023-03-01T01:59:51;99175.53;;;-1.70;65.45
74893;BME280;63446;56.272;43.922;2023-03-01T02:02:19;99189.19;;;-1.63;65.39
74893;BME280;63446;56.272;43.922;2023-03-01T02:04:47;99183.00;;;-1.62;65.26
74893;BME280;63446;56.272;43.922;2023-03-01T02:07:21;99191.59;;;-1.61;65.43
74893;BME280;63446;56.272;43.922;2023-03-01T02:09:50;99176.66;;;-1.66;65.38
74893;BME280;63446;56.272;43.922;2023-03-01T02:12:21;99179.97;;;-1.59;65.35
74893;BME280;63446;56.272;43.922;2023-03-01T02:14:48;99185.03;;;-1.64;65.43
74893;BME280;63446;56.272;43.922;2023-03-01T02:17:15;99185.75;;;-1.57;65.39
74893;BME280;63446;56.272;43.922;2023-03-01T02:22:44;99193.72;;;-1.58;65.22
74893;BME280;63446;56.272;43.922;2023-03-01T02:28:08;99201.34;;;-1.63;64.99
74893;BME280;63446;56.272;43.922;2023-03-01T02:30:36;99196.03;;;-1.68;65.00
74893;BME280;63446;56.272;43.922;2023-03-01T02:33:04;99206.03;;;-1.72;64.89
74893;BME280;63446;56.272;43.922;2023-03-01T02:35:33;99210.06;;;-1.76;64.84
74893;BME280;63446;56.272;43.922;2023-03-01T02:38:02;99202.38;;;-1.83;64.88
74893;BME280;63446;56.272;43.922;2023-03-01T02:40:30;99210.19;;;-1.89;64.83
74893;BME280;63446;56.272;43.922;2023-03-01T02:42:59;99214.66;;;-1.97;64.84
74893;BME280;63446;56.272;43.922;2023-03-01T02:45:26;99214.16;;;-2.05;64.86
74893;BME280;63446;56.272;43.922;2023-03-01T02:47:56;99220.38;;;-2.13;64.75
74893;BME280;63446;56.272;43.922;2023-03-01T02:53:08;99204.25;;;-2.33;64.97
74893;BME280;63446;56.272;43.922;2023-03-01T02:55:36;99222.16;;;-2.32;64.85
74893;BME280;63446;56.272;43.922;2023-03-01T02:58:03;99218.22;;;-2.34;64.82
74893;BME280;63446;56.272;43.922;2023-03-01T03:00:37;99210.88;;;-2.37;64.94
74893;BME280;63446;56.272;43.922;2023-03-01T03:03:13;99215.44;;;-2.39;65.07
74893;BME280;63446;56.272;43.922;2023-03-01T03:05:41;99209.69;;;-2.41;65.01
74893;BME280;63446;56.272;43.922;2023-03-01T03:08:07;99216.09;;;-2.44;64.91
74893;BME280;63446;56.272;43.922;2023-03-01T03:10:38;99213.91;;;-2.47;65.06
74893;BME280;63446;56.272;43.922;2023-03-01T03:13:15;99215.94;;;-2.49;65.02
74893;BME280;63446;56.272;43.922;2023-03-01T03:15:42;99214.28;;;-2.43;65.20
74893;BME280;63446;56.272;43.922;2023-03-01T03:18:14;99224.22;;;-2.40;65.05
74893;BME280;63446;56.272;43.922;2023-03-01T03:20:41;99222.00;;;-2.37;65.17
74893;BME280;63446;56.272;43.922;2023-03-01T03:23:08;99221.59;;;-2.34;65.27
74893;BME280;63446;56.272;43.922;2023-03-01T03:25:34;99223.16;;;-2.33;65.12
74893;BME280;63446;56.272;43.922;2023-03-01T03:28:04;99227.31;;;-2.32;65.17
74893;BME280;63446;56.272;43.922;2023-03-01T03:30:37;99219.38;;;-2.30;65.36
74893;BME280;63446;56.272;43.922;2023-03-01T03:33:05;99227.13;;;-2.30;65.23
74893;BME280;63446;56.272;43.922;2023-03-01T03:35:34;99224.09;;;-2.27;65.28
74893;BME280;63446;56.272;43.922;2023-03-01T03:38:03;99225.69;;;-2.26;65.24
74893;BME280;63446;56.272;43.922;2023-03-01T03:40:38;99224.84;;;-2.20;65.15
74893;BME280;63446;56.272;43.922;2023-03-01T03:43:09;99222.59;;;-2.16;65.07
74893;BME280;63446;56.272;43.922;2023-03-01T03:45:36;99232.53;;;-2.13;65.19
74893;BME280;63446;56.272;43.922;2023-03-01T03:48:04;99223.56;;;-2.11;64.97
74893;BME280;63446;56.272;43.922;2023-03-01T03:50:30;99225.38;;;-2.11;64.88
74893;BME280;63446;56.272;43.922;2023-03-01T03:52:56;99223.13;;;-2.08;64.83
74893;BME280;63446;56.272;43.922;2023-03-01T03:55:23;99222.69;;;-2.05;64.71
74893;BME280;63446;56.272;43.922;2023-03-01T03:57:53;99225.88;;;-2.03;64.81
74893;BME280;63446;56.272;43.922;2023-03-01T04:00:21;99228.03;;;-2.00;64.95
74893;BME280;63446;56.272;43.922;2023-03-01T04:02:47;99226.81;;;-1.97;64.77
74893;BME280;63446;56.272;43.922;2023-03-01T04:05:16;99219.81;;;-1.97;64.67
74893;BME280;63446;56.272;43.922;2023-03-01T04:07:42;99222.22;;;-1.95;64.68
74893;BME280;63446;56.272;43.922;2023-03-01T04:10:11;99224.16;;;-1.90;64.57
74893;BME280;63446;56.272;43.922;2023-03-01T04:12:37;99233.31;;;-1.88;64.57
74893;BME280;63446;56.272;43.922;2023-03-01T04:15:05;99232.06;;;-1.85;64.47
74893;BME280;63446;56.272;43.922;2023-03-01T04:17:42;99236.25;;;-1.84;64.47
74893;BME280;63446;56.272;43.922;2023-03-01T04:20:15;99241.59;;;-1.79;64.42
74893;BME280;63446;56.272;43.922;2023-03-01T04:23:02;99248.34;;;-1.78;64.43
74893;BME280;63446;56.272;43.922;2023-03-01T04:25:49;99238.56;;;-1.76;64.26
74893;BME280;63446;56.272;43.922;2023-03-01T04:30:55;99239.72;;;-1.72;64.21
74893;BME280;63446;56.272;43.922;2023-03-01T04:33:23;99245.03;;;-1.67;64.15
74893;BME280;63446;56.272;43.922;2023-03-01T04:35:49;99251.94;;;-1.61;64.06
74893;BME280;63446;56.272;43.922;2023-03-01T04:38:18;99249.50;;;-1.56;63.93
74893;BME280;63446;56.272;43.922;2023-03-01T04:40:44;99234.19;;;-1.57;63.86
74893;BME280;63446;56.272;43.922;2023-03-01T04:43:12;99246.63;;;-1.48;63.80
74893;BME280;63446;56.272;43.922;2023-03-01T04:45:40;99250.06;;;-1.35;63.69
74893;BME280;63446;56.272;43.922;2023-03-01T04:48:07;99256.53;;;-1.26;63.80
74893;BME280;63446;56.272;43.922;2023-03-01T04:50:33;99255.66;;;-1.20;63.61
74893;BME280;63446;56.272;43.922;2023-03-01T04:52:58;99259.19;;;-1.14;63.56
74893;BME280;63446;56.272;43.922;2023-03-01T04:55:26;99269.44;;;-1.08;63.53
74893;BME280;63446;56.272;43.922;2023-03-01T04:57:52;99268.81;;;-1.03;63.33
74893;BME280;63446;56.272;43.922;2023-03-01T05:00:18;99270.50;;;-0.97;63.21
74893;BME280;63446;56.272;43.922;2023-03-01T05:02:48;99267.25;;;-0.92;63.11
74893;BME280;63446;56.272;43.922;2023-03-01T05:05:27;99269.56;;;-0.84;63.06
74893;BME280;63446;56.272;43.922;2023-03-01T05:07:58;99270.25;;;-0.77;63.00
74893;BME280;63446;56.272;43.922;2023-03-01T05:10:26;99266.53;;;-0.69;62.76
74893;BME280;63446;56.272;43.922;2023-03-01T05:12:55;99274.25;;;-0.63;62.78
74893;BME280;63446;56.272;43.922;2023-03-01T05:15:23;99271.56;;;-0.56;62.66
74893;BME280;63446;56.272;43.922;2023-03-01T05:17:54;99272.81;;;-0.47;62.50
74893;BME280;63446;56.272;43.922;2023-03-01T05:20:21;99270.72;;;-0.38;62.35
74893;BME280;63446;56.272;43.922;2023-03-01T05:22:51;99268.78;;;-0.31;62.26
74893;BME280;63446;56.272;43.922;2023-03-01T05:25:21;99281.44;;;-0.23;62.22
74893;BME280;63446;56.272;43.922;2023-03-01T05:27:47;99271.63;;;-0.21;62.09
74893;BME280;63446;56.272;43.922;2023-03-01T05:30:14;99276.38;;;-0.18;61.76
74893;BME280;63446;56.272;43.922;2023-03-01T05:32:45;99274.22;;;-0.09;61.79
74893;BME280;63446;56.272;43.922;2023-03-01T05:35:17;99274.66;;;-0.01;61.63
74893;BME280;63446;56.272;43.922;2023-03-01T05:37:44;99281.22;;;0.14;61.57
74893;BME280;63446;56.272;43.922;2023-03-01T05:40:13;99287.19;;;0.26;61.35
74893;BME280;63446;56.272;43.922;2023-03-01T05:42:44;99285.72;;;0.42;61.28
74893;BME280;63446;56.272;43.922;2023-03-01T05:45:11;99282.19;;;0.60;60.92
74893;BME280;63446;56.272;43.922;2023-03-01T05:47:39;99288.44;;;0.87;60.65
74893;BME280;63446;56.272;43.922;2023-03-01T05:50:23;99282.78;;;1.19;60.22
74893;BME280;63446;56.272;43.922;2023-03-01T05:52:51;99291.44;;;1.53;59.88
74893;BME280;63446;56.272;43.922;2023-03-01T05:55:19;99290.94;;;1.85;59.42
74893;BME280;63446;56.272;43.922;2023-03-01T05:57:47;99291.59;;;2.14;58.77
74893;BME280;63446;56.272;43.922;2023-03-01T06:00:14;99295.38;;;2.40;58.15
74893;BME280;63446;56.272;43.922;2023-03-01T06:02:42;99293.25;;;2.59;58.03
74893;BME280;63446;56.272;43.922;2023-03-01T06:05:09;99299.75;;;2.78;57.65
74893;BME280;63446;56.272;43.922;2023-03-01T06:07:35;99296.47;;;2.88;57.21
74893;BME280;63446;56.272;43.922;2023-03-01T06:10:02;99298.91;;;2.94;57.02
74893;BME280;63446;56.272;43.922;2023-03-01T06:12:34;99297.38;;;2.99;56.72
74893;BME280;63446;56.272;43.922;2023-03-01T06:15:01;99300.84;;;3.04;56.78
74893;BME280;63446;56.272;43.922;2023-03-01T06:17:32;99299.00;;;3.05;56.45
74893;BME280;63446;56.272;43.922;2023-03-01T06:19:58;99299.00;;;3.05;56.46
74893;BME280;63446;56.272;43.922;2023-03-01T06:22:25;99302.66;;;3.04;56.36
74893;BME280;63446;56.272;43.922;2023-03-01T06:24:51;99307.69;;;3.10;56.03
74893;BME280;63446;56.272;43.922;2023-03-01T06:27:16;99310.94;;;3.23;55.91
74893;BME280;63446;56.272;43.922;2023-03-01T06:29:43;99308.47;;;3.38;55.57
74893;BME280;63446;56.272;43.922;2023-03-01T06:32:08;99305.22;;;3.53;55.30
74893;BME280;63446;56.272;43.922;2023-03-01T06:34:34;99302.50;;;3.70;55.08
74893;BME280;63446;56.272;43.922;2023-03-01T06:37:00;99306.25;;;3.84;54.88
74893;BME280;63446;56.272;43.922;2023-03-01T06:39:31;99299.84;;;3.97;54.69
74893;BME280;63446;56.272;43.922;2023-03-01T06:41:57;99294.91;;;4.00;54.50
74893;BME280;63446;56.272;43.922;2023-03-01T06:44:23;99294.09;;;4.00;54.08
74893;BME280;63446;56.272;43.922;2023-03-01T06:46:48;99298.81;;;4.03;53.98
74893;BME280;63446;56.272;43.922;2023-03-01T06:49:14;99292.03;;;4.02;53.86
74893;BME280;63446;56.272;43.922;2023-03-01T06:51:41;99294.63;;;4.02;53.74
74893;BME280;63446;56.272;43.922;2023-03-01T06:54:07;99284.69;;;3.99;53.66
74893;BME280;63446;56.272;43.922;2023-03-01T06:56:33;99284.91;;;3.92;53.39
74893;BME280;63446;56.272;43.922;2023-03-01T06:58:59;99296.09;;;3.87;53.28
74893;BME280;63446;56.272;43.922;2023-03-01T07:01:26;99289.78;;;3.83;53.13
74893;BME280;63446;56.272;43.922;2023-03-01T07:03:51;99289.22;;;3.76;53.10
74893;BME280;63446;56.272;43.922;2023-03-01T07:06:17;99291.78;;;3.71;52.85
74893;BME280;63446;56.272;43.922;2023-03-01T07:08:43;99291.69;;;3.61;52.71
74893;BME280;63446;56.272;43.922;2023-03-01T07:11:09;99285.91;;;3.54;52.79
74893;BME280;63446;56.272;43.922;2023-03-01T07:13:34;99287.72;;;3.53;52.85
74893;BME280;63446;56.272;43.922;2023-03-01T07:16:00;99290.59;;;3.52;52.75
74893;BME280;63446;56.272;43.922;2023-03-01T07:18:26;99290.34;;;3.53;52.83
74893;BME280;63446;56.272;43.922;2023-03-01T07:20:53;99299.53;;;3.61;52.84
74893;BME280;63446;56.272;43.922;2023-03-01T07:23:19;99289.22;;;3.76;52.53
74893;BME280;63446;56.272;43.922;2023-03-01T07:25:51;99285.72;;;3.98;52.33
74893;BME280;63446;56.272;43.922;2023-03-01T07:28:17;99289.53;;;4.22;52.02
74893;BME280;63446;56.272;43.922;2023-03-01T07:30:43;99296.97;;;4.40;51.88
74893;BME280;63446;56.272;43.922;2023-03-01T07:33:08;99299.44;;;4.57;51.68
74893;BME280;63446;56.272;43.922;2023-03-01T07:35:35;99292.66;;;4.72;51.37
74893;BME280;63446;56.272;43.922;2023-03-01T07:38:01;99299.00;;;4.86;51.05
74893;BME280;63446;56.272;43.922;2023-03-01T07:40:27;99289.09;;;4.93;50.59
74893;BME280;63446;56.272;43.922;2023-03-01T07:42:57;99298.50;;;4.94;50.33
74893;BME280;63446;56.272;43.922;2023-03-01T07:45:24;99289.31;;;4.92;50.17
74893;BME280;63446;56.272;43.922;2023-03-01T07:47:53;99300.06;;;4.90;50.02
74893;BME280;63446;56.272;43.922;2023-03-01T07:50:19;99297.19;;;4.92;49.88
74893;BME280;63446;56.272;43.922;2023-03-01T07:52:48;99297.47;;;4.95;49.70
74893;BME280;63446;56.272;43.922;2023-03-01T07:55:27;99293.03;;;5.01;49.54
74893;BME280;63446;56.272;43.922;2023-03-01T07:57:53;99287.25;;;4.94;49.57
74893;BME280;63446;56.272;43.922;2023-03-01T08:00:19;99294.09;;;5.05;49.32
74893;BME280;63446;56.272;43.922;2023-03-01T08:02:45;99289.38;;;5.07;49.00
74893;BME280;63446;56.272;43.922;2023-03-01T08:05:10;99306.13;;;5.11;48.94
74893;BME280;63446;56.272;43.922;2023-03-01T08:07:36;99298.03;;;5.18;48.68
74893;BME280;63446;56.272;43.922;2023-03-01T08:10:03;99302.50;;;5.22;48.54
74893;BME280;63446;56.272;43.922;2023-03-01T08:12:30;99298.06;;;5.23;48.28
74893;BME280;63446;56.272;43.922;2023-03-01T08:14:55;99298.34;;;5.31;48.20
74893;BME280;63446;56.272;43.922;2023-03-01T08:17:22;99297.03;;;5.44;47.89
74893;BME280;63446;56.272;43.922;2023-03-01T08:19:48;99305.16;;;5.32;47.66
74893;BME280;63446;56.272;43.922;2023-03-01T08:22:14;99301.44;;;5.18;47.87
74893;BME280;63446;56.272;43.922;2023-03-01T08:24:40;99307.19;;;5.05;47.87
74893;BME280;63446;56.272;43.922;2023-03-01T08:27:06;99296.13;;;4.82;47.85
74893;BME280;63446;56.272;43.922;2023-03-01T08:29:32;99309.13;;;4.67;48.24
74893;BME280;63446;56.272;43.922;2023-03-01T08:31:59;99317.97;;;4.56;48.19
74893;BME280;63446;56.272;43.922;2023-03-01T08:34:25;99314.28;;;4.47;48.42
74893;BME280;63446;56.272;43.922;2023-03-01T08:36:51;99328.91;;;4.43;48.41
74893;BME280;63446;56.272;43.922;2023-03-01T08:39:19;99326.81;;;4.45;48.45
74893;BME280;63446;56.272;43.922;2023-03-01T08:41:46;99330.50;;;4.49;48.30
74893;BME280;63446;56.272;43.922;2023-03-01T08:44:14;99336.50;;;4.49;48.29
74893;BME280;63446;56.272;43.922;2023-03-01T08:46:42;99328.94;;;4.48;48.27
74893;BME280;63446;56.272;43.922;2023-03-01T08:49:17;99338.84;;;4.46;48.09
74893;BME280;63446;56.272;43.922;2023-03-01T08:51:45;99334.13;;;4.43;48.13
74893;BME280;63446;56.272;43.922;2023-03-01T08:54:15;99345.88;;;4.40;48.12
74893;BME280;63446;56.272;43.922;2023-03-01T08:56:42;99348.25;;;4.41;48.12
74893;BME280;63446;56.272;43.922;2023-03-01T08:59:08;99342.22;;;4.41;47.92
74893;BME280;63446;56.272;43.922;2023-03-01T09:01:34;99338.31;;;4.44;47.79
74893;BME280;63446;56.272;43.922;2023-03-01T09:04:00;99342.50;;;4.45;47.73
74893;BME280;63446;56.272;43.922;2023-03-01T09:06:26;99339.13;;;4.49;47.67
74893;BME280;63446;56.272;43.922;2023-03-01T09:08:52;99344.44;;;4.59;47.50
74893;BME280;63446;56.272;43.922;2023-03-01T09:11:20;99349.97;;;4.68;47.43
74893;BME280;63446;56.272;43.922;2023-03-01T09:13:48;99347.41;;;4.78;47.31
74893;BME280;63446;56.272;43.922;2023-03-01T09:16:16;99349.53;;;4.86;47.28
74893;BME280;63446;56.272;43.922;2023-03-01T09:18:43;99347.97;;;4.90;47.16
74893;BME280;63446;56.272;43.922;2023-03-01T09:21:15;99350.88;;;4.94;46.99
74893;BME280;63446;56.272;43.922;2023-03-01T09:23:43;99355.31;;;4.94;47.06
74893;BME280;63446;56.272;43.922;2023-03-01T09:26:12;99344.34;;;4.97;46.96
74893;BME280;63446;56.272;43.922;2023-03-01T09:28:39;99344.88;;;4.99;47.01
74893;BME280;63446;56.272;43.922;2023-03-01T09:31:07;99347.53;;;5.09;47.05
74893;BME280;63446;56.272;43.922;2023-03-01T09:33:33;99342.84;;;5.21;46.94
74893;BME280;63446;56.272;43.922;2023-03-01T09:36:03;99348.13;;;5.31;46.80
74893;BME280;63446;56.272;43.922;2023-03-01T09:38:30;99347.63;;;5.39;46.65
74893;BME280;63446;56.272;43.922;2023-03-01T09:40:56;99342.91;;;5.47;46.64
74893;BME280;63446;56.272;43.922;2023-03-01T09:43:45;99343.47;;;5.54;46.68
74893;BME280;63446;56.272;43.922;2023-03-01T09:46:15;99341.88;;;5.63;46.53
74893;BME280;63446;56.272;43.922;2023-03-01T09:49:01;99343.47;;;5.69;46.55
74893;BME280;63446;56.272;43.922;2023-03-01T09:51:34;99340.84;;;5.74;46.43
74893;BME280;63446;56.272;43.922;2023-03-01T09:54:04;99334.03;;;5.73;46.58
74893;BME280;63446;56.272;43.922;2023-03-01T10:01:46;99330.88;;;5.86;46.21
74893;BME280;63446;56.272;43.922;2023-03-01T10:04:28;99340.38;;;5.93;45.96
74893;BME280;63446;56.272;43.922;2023-03-01T10:09:43;99336.41;;;5.90;45.64
74893;BME280;63446;56.272;43.922;2023-03-01T10:12:14;99332.19;;;5.84;45.88
74893;BME280;63446;56.272;43.922;2023-03-01T10:14:53;99344.25;;;5.80;45.57
74893;BME280;63446;56.272;43.922;2023-03-01T10:20:19;99342.94;;;5.67;45.61
74893;BME280;63446;56.272;43.922;2023-03-01T10:22:46;99338.72;;;5.56;45.58
74893;BME280;63446;56.272;43.922;2023-03-01T10:25:23;99347.63;;;5.45;45.59
74893;BME280;63446;56.272;43.922;2023-03-01T10:28:02;99347.84;;;5.28;45.67
74893;BME280;63446;56.272;43.922;2023-03-01T10:30:34;99339.44;;;5.16;45.73
74893;BME280;63446;56.272;43.922;2023-03-01T10:33:02;99343.59;;;5.06;45.94
74893;BME280;63446;56.272;43.922;2023-03-01T10:35:31;99337.78;;;4.89;45.95
74893;BME280;63446;56.272;43.922;2023-03-01T10:38:08;99339.56;;;4.83;46.06
74893;BME280;63446;56.272;43.922;2023-03-01T10:40:36;99341.38;;;4.78;46.09
74893;BME280;63446;56.272;43.922;2023-03-01T10:43:15;99343.72;;;4.79;46.17
74893;BME280;63446;56.272;43.922;2023-03-01T10:45:41;99340.34;;;4.84;46.17
74893;BME280;63446;56.272;43.922;2023-03-01T10:48:22;99349.59;;;4.97;46.16
74893;BME280;63446;56.272;43.922;2023-03-01T10:56:06;99344.84;;;4.88;45.97
74893;BME280;63446;56.272;43.922;2023-03-01T10:58:35;99340.34;;;4.84;45.83
74893;BME280;63446;56.272;43.922;2023-03-01T11:01:44;99341.63;;;4.76;45.71
74893;BME280;63446;56.272;43.922;2023-03-01T11:06:36;99339.75;;;4.61;46.00
74893;BME280;63446;56.272;43.922;2023-03-01T11:11:41;99340.53;;;4.62;46.12
74893;BME280;63446;56.272;43.922;2023-03-01T11:16:44;99336.06;;;4.62;46.15
74893;BME280;63446;56.272;43.922;2023-03-01T11:24:11;99338.63;;;4.52;46.17
74893;BME280;63446;56.272;43.922;2023-03-01T11:26:40;99338.34;;;4.49;46.03
74893;BME280;63446;56.272;43.922;2023-03-01T11:32:00;99338.06;;;4.45;45.87
74893;BME280;63446;56.272;43.922;2023-03-01T11:37:19;99349.75;;;4.27;45.65
74893;BME280;63446;56.272;43.922;2023-03-01T11:40:16;99333.69;;;4.19;45.70
74893;BME280;63446;56.272;43.922;2023-03-01T11:42:51;99338.38;;;4.11;45.68
74893;BME280;63446;56.272;43.922;2023-03-01T11:45:23;99333.66;;;4.08;45.69
74893;BME280;63446;56.272;43.922;2023-03-01T11:48:06;99351.94;;;4.08;45.65
74893;BME280;63446;56.272;43.922;2023-03-01T11:50:46;99345.38;;;4.06;45.73
74893;BME280;63446;56.272;43.922;2023-03-01T11:53:34;99352.44;;;4.05;45.84
74893;BME280;63446;56.272;43.922;2023-03-01T11:56:41;99352.72;;;4.04;45.75
74893;BME280;63446;56.272;43.922;2023-03-01T12:00:14;99344.56;;;4.00;46.04
74893;BME280;63446;56.272;43.922;2023-03-01T12:02:35;99342.16;;;3.94;45.98
74893;BME280;63446;56.272;43.922;2023-03-01T12:30:06;99352.69;;;3.45;46.53
74893;BME280;63446;56.272;43.922;2023-03-01T12:47:17;99362.38;;;3.22;46.78
74893;BME280;63446;56.272;43.922;2023-03-01T12:49:53;99365.22;;;3.21;46.61
74893;BME280;63446;56.272;43.922;2023-03-01T12:55:01;99351.31;;;3.15;46.76
74893;BME280;63446;56.272;43.922;2023-03-01T12:57:34;99345.56;;;3.13;46.85
74893;BME280;63446;56.272;43.922;2023-03-01T13:06:31;99356.88;;;2.97;46.88
74893;BME280;63446;56.272;43.922;2023-03-01T13:08:45;99363.22;;;2.84;46.71
74893;BME280;63446;56.272;43.922;2023-03-01T13:11:21;99359.88;;;2.66;46.82
74893;BME280;63446;56.272;43.922;2023-03-01T13:13:48;99361.50;;;2.51;47.04
74893;BME280;63446;56.272;43.922;2023-03-01T13:19:12;99363.88;;;2.18;47.16
74893;BME280;63446;56.272;43.922;2023-03-01T13:21:41;99362.94;;;2.08;47.22
74893;BME280;63446;56.272;43.922;2023-03-01T13:24:34;99363.56;;;1.98;47.39
74893;BME280;63446;56.272;43.922;2023-03-01T13:32:27;99358.34;;;1.81;47.68
74893;BME280;63446;56.272;43.922;2023-03-01T13:35:03;99355.88;;;1.75;47.80
74893;BME280;63446;56.272;43.922;2023-03-01T13:37:35;99358.56;;;1.63;47.71
74893;BME280;63446;56.272;43.922;2023-03-01T13:42:51;99369.16;;;1.44;48.08
74893;BME280;63446;56.272;43.922;2023-03-01T13:45:36;99365.09;;;1.37;48.22
74893;BME280;63446;56.272;43.922;2023-03-01T13:48:25;99362.75;;;1.35;48.25
74893;BME280;63446;56.272;43.922;2023-03-01T13:50:59;99365.81;;;1.32;48.28
74893;BME280;63446;56.272;43.922;2023-03-01T13:53:30;99362.09;;;1.28;48.39
74893;BME280;63446;56.272;43.922;2023-03-01T13:56:09;99365.41;;;1.24;48.64
74893;BME280;63446;56.272;43.922;2023-03-01T13:59:01;99368.47;;;1.20;48.82
74893;BME280;63446;56.272;43.922;2023-03-01T14:01:31;99368.66;;;1.19;48.89
74893;BME280;63446;56.272;43.922;2023-03-01T14:03:57;99374.34;;;1.16;49.00
74893;BME280;63446;56.272;43.922;2023-03-01T14:06:28;99370.31;;;1.08;49.15
74893;BME280;63446;56.272;43.922;2023-03-01T14:09:13;99360.81;;;1.02;49.26
74893;BME280;63446;56.272;43.922;2023-03-01T14:15:15;99367.84;;;0.90;49.56
74893;BME280;63446;56.272;43.922;2023-03-01T14:20:17;99365.38;;;0.83;49.78
74893;BME280;63446;56.272;43.922;2023-03-01T14:22:46;99355.66;;;0.79;49.90
74893;BME280;63446;56.272;43.922;2023-03-01T14:25:31;99364.69;;;0.76;50.04
74893;BME280;63446;56.272;43.922;2023-03-01T14:28:04;99368.56;;;0.73;50.15
74893;BME280;63446;56.272;43.922;2023-03-01T14:30:37;99362.00;;;0.71;50.35
74893;BME280;63446;56.272;43.922;2023-03-01T14:36:02;99367.53;;;0.63;50.44
74893;BME280;63446;56.272;43.922;2023-03-01T14:38:46;99365.63;;;0.58;50.51
74893;BME280;63446;56.272;43.922;2023-03-01T14:41:16;99368.88;;;0.54;50.58
74893;BME280;63446;56.272;43.922;2023-03-01T14:43:46;99363.38;;;0.50;50.50
74893;BME280;63446;56.272;43.922;2023-03-01T14:46:33;99368.25;;;0.46;50.71
74893;BME280;63446;56.272;43.922;2023-03-01T14:49:20;99374.09;;;0.42;50.78
74893;BME280;63446;56.272;43.922;2023-03-01T14:51:53;99372.97;;;0.38;50.89
74893;BME280;63446;56.272;43.922;2023-03-01T14:54:32;99373.44;;;0.35;50.92
74893;BME280;63446;56.272;43.922;2023-03-01T14:57:02;99375.09;;;0.29;50.96
74893;BME280;63446;56.272;43.922;2023-03-01T14:59:28;99381.00;;;0.24;51.10
74893;BME280;63446;56.272;43.922;2023-03-01T15:01:57;99385.84;;;0.21;51.08
74893;BME280;63446;56.272;43.922;2023-03-01T15:04:25;99384.72;;;0.17;51.18
74893;BME280;63446;56.272;43.922;2023-03-01T15:06:54;99380.53;;;0.16;51.43